Time;durP1;ratioP1;P1;durP2;ratioP2;P2;SDS_P1;SDS_P2;PMS_P1;PMS_P2;Temp;Humidity;BMP_temperature;BMP_pressure;BME280_temperature;BME280_humidity;BME280_pressure;Samples;Min_cycle;Max_cycle;Signal;HPM_P1;HPM_P2
2023/08/06 00:00:50;;;;;;;1.80;1.10;;;;;;;;;;4989011;28;20069;-85
2023/08/06 00:03:16;;;;;;;1.25;0.60;;;;;;;;;;5002959;28;20117;-86
2023/08/06 00:05:45;;;;;;;0.90;0.52;;;;;;;;;;5002475;28;20062;-85
2023/08/06 00:08:11;;;;;;;1.17;0.40;;;;;;;;;;4988084;28;20501;-84
2023/08/06 00:10:37;;;;;;;0.85;0.57;;;;;;;;;;4985897;28;20091;-84
2023/08/06 00:13:03;;;;;;;2.63;0.60;;;;;;;;;;4987123;28;20112;-84
2023/08/06 00:15:29;;;;;;;0.80;0.40;;;;;;;;;;5004470;28;20120;-84
2023/08/06 00:17:58;;;;;;;6.10;0.50;;;;;;;;;;4999048;28;20046;-84
2023/08/06 00:20:24;;;;;;;1.00;0.43;;;;;;;;;;4984618;28;20057;-83
2023/08/06 00:22:50;;;;;;;0.93;0.50;;;;;;;;;;5001071;28;20061;-84
2023/08/06 00:25:16;;;;;;;0.22;0.20;;;;;;;;;;5006816;28;20049;-83
2023/08/06 00:27:42;;;;;;;1.80;0.45;;;;;;;;;;5009069;28;20113;-83
2023/08/06 00:30:08;;;;;;;1.17;0.63;;;;;;;;;;4992207;28;20469;-83
2023/08/06 00:32:34;;;;;;;0.73;0.40;;;;;;;;;;4992729;28;20025;-83
2023/08/06 00:34:59;;;;;;;0.82;0.40;;;;;;;;;;4986927;28;20426;-84
2023/08/06 00:37:25;;;;;;;3.72;0.57;;;;;;;;;;5005748;28;20120;-83
2023/08/06 00:39:51;;;;;;;1.00;0.45;;;;;;;;;;5007156;28;20030;-84
2023/08/06 00:42:20;;;;;;;2.58;0.98;;;;;;;;;;5008267;28;20660;-83
2023/08/06 00:44:46;;;;;;;3.00;1.00;;;;;;;;;;5001912;28;20014;-85
2023/08/06 00:47:12;;;;;;;1.77;0.60;;;;;;;;;;4986146;28;20065;-84
2023/08/06 00:49:39;;;;;;;0.85;0.40;;;14.90;99.90;;;;;;5004164;28;20084;-84
2023/08/06 00:52:06;;;;;;;0.77;0.40;;;15.30;99.90;;;;;;4993456;28;20052;-84
2023/08/06 00:54:34;;;;;;;2.33;0.80;;;14.70;99.90;;;;;;5006665;28;20081;-84
2023/08/06 00:57:01;;;;;;;5.40;0.75;;;14.70;99.90;;;;;;4991619;28;20033;-85
2023/08/06 00:59:29;;;;;;;1.23;0.63;;;15.20;99.90;;;;;;4997968;28;20367;-84
2023/08/06 01:01:55;;;;;;;1.17;0.40;;;;;;;;;;5000224;28;20115;-85
2023/08/06 01:04:21;;;;;;;1.20;0.50;;;;;;;;;;5005658;28;20030;-83
2023/08/06 01:06:52;;;;;;;1.77;0.75;;;14.80;99.90;;;;;;4989280;28;20033;-83
2023/08/06 01:09:17;;;;;;;1.30;0.70;;;;;;;;;;5006265;28;20038;-84
2023/08/06 01:12:09;;;;;;;2.03;0.55;;;14.70;99.90;;;;;;5004172;28;20560;-84
2023/08/06 01:14:52;;;;;;;1.20;0.57;;;15.10;99.90;;;;;;4994704;28;20544;-85
2023/08/06 01:17:18;;;;;;;1.27;0.50;;;;;;;;;;5002460;28;20160;-85
2023/08/06 01:19:44;;;;;;;1.40;0.68;;;;;;;;;;5002552;28;20487;-84
2023/08/06 01:22:10;;;;;;;2.08;0.70;;;;;;;;;;4982945;28;20033;-84
2023/08/06 01:24:36;;;;;;;3.00;0.80;;;;;;;;;;5003725;28;20024;-84
2023/08/06 01:27:25;;;;;;;0.68;0.45;;;14.40;99.90;;;;;;4991379;28;20146;-84
2023/08/06 01:30:08;;;;;;;1.92;0.50;;;14.60;99.90;;;;;;5001779;28;20146;-84
2023/08/06 01:32:35;;;;;;;1.17;0.63;;;14.50;99.90;;;;;;4984131;28;20026;-83
2023/08/06 01:35:03;;;;;;;1.35;0.80;;;14.40;99.90;;;;;;5003513;28;20037;-83
2023/08/06 01:37:29;;;;;;;1.70;0.50;;;;;;;;;;4999793;28;20030;-85
2023/08/06 01:39:55;;;;;;;1.15;0.47;;;;;;;;;;5000841;28;20029;-84
2023/08/06 01:42:21;;;;;;;1.50;0.60;;;;;;;;;;4983337;28;20033;-84
2023/08/06 01:44:47;;;;;;;1.60;0.63;;;;;;;;;;4986836;28;20028;-84
2023/08/06 01:47:13;;;;;;;2.78;0.65;;;;;;;;;;5003975;28;20128;-85
2023/08/06 01:49:39;;;;;;;0.82;0.40;;;;;;;;;;4985851;28;20542;-84
2023/08/06 01:52:05;;;;;;;3.70;1.58;;;;;;;;;;4996228;28;20045;-84
2023/08/06 01:54:31;;;;;;;1.20;0.60;;;;;;;;;;5005804;28;20033;-85
2023/08/06 01:56:58;;;;;;;3.30;0.55;;;;;;;;;;5006277;28;20056;-84
2023/08/06 01:59:24;;;;;;;2.90;0.57;;;;;;;;;;4984774;28;20075;-84
2023/08/06 02:01:50;;;;;;;0.93;0.55;;;;;;;;;;4984641;28;20746;-84
2023/08/06 02:04:16;;;;;;;1.50;0.60;;;;;;;;;;4990108;28;20038;-84
2023/08/06 02:06:42;;;;;;;4.47;0.70;;;;;;;;;;4991911;28;20387;-83
2023/08/06 02:09:08;;;;;;;2.13;0.60;;;;;;;;;;5010334;28;20076;-84
2023/08/06 02:11:34;;;;;;;1.30;0.55;;;;;;;;;;5007823;28;20038;-83
2023/08/06 02:14:00;;;;;;;1.88;0.80;;;;;;;;;;5000944;28;20496;-83
2023/08/06 02:16:26;;;;;;;3.13;1.00;;;;;;;;;;5010584;28;20197;-84
2023/08/06 02:18:52;;;;;;;2.55;0.70;;;;;;;;;;4987995;28;20030;-84
2023/08/06 02:21:18;;;;;;;3.47;0.70;;;;;;;;;;5003747;28;20175;-84
2023/08/06 02:23:44;;;;;;;2.15;0.95;;;;;;;;;;5003582;28;20030;-85
2023/08/06 02:26:11;;;;;;;1.55;0.60;;;;;;;;;;4990513;28;20026;-84
2023/08/06 02:28:37;;;;;;;1.55;0.73;;;;;;;;;;5002486;28;20042;-83
2023/08/06 02:31:03;;;;;;;2.33;1.50;;;;;;;;;;5004135;28;20529;-84
2023/08/06 02:33:29;;;;;;;2.08;1.15;;;;;;;;;;4994246;28;20402;-84
2023/08/06 02:36:03;;;;;;;1.45;0.90;;;14.10;99.90;;;;;;5026566;28;20030;-85
2023/08/06 02:38:29;;;;;;;1.63;0.77;;;;;;;;;;5026178;28;20018;-86
2023/08/06 02:40:55;;;;;;;1.95;0.68;;;;;;;;;;5012164;28;20029;-86
2023/08/06 02:43:21;;;;;;;1.83;0.88;;;;;;;;;;4992340;28;20088;-86
2023/08/06 02:45:48;;;;;;;3.50;0.85;;;;;;;;;;5012452;28;20018;-86
2023/08/06 02:48:14;;;;;;;2.72;1.35;;;;;;;;;;4996291;28;20444;-86
2023/08/06 02:50:40;;;;;;;1.67;0.77;;;14.10;99.90;;;;;;5014808;28;20036;-86
2023/08/06 02:53:07;;;;;;;2.50;1.10;;;;;;;;;;5012473;28;20096;-86
2023/08/06 02:55:33;;;;;;;1.85;0.82;;;;;;;;;;5007346;28;20048;-85
2023/08/06 02:58:00;;;;;;;2.63;0.65;;;14.10;99.90;;;;;;5011920;28;20026;-86
2023/08/06 03:00:26;;;;;;;2.63;1.00;;;;;;;;;;4996619;28;20029;-85
2023/08/06 03:02:52;;;;;;;1.85;0.90;;;14.10;99.90;;;;;;5007727;28;20025;-86
2023/08/06 03:05:18;;;;;;;1.88;0.85;;;;;;;;;;5005238;28;20030;-86
2023/08/06 03:07:44;;;;;;;2.25;1.13;;;;;;;;;;5005040;28;20048;-86
2023/08/06 03:10:10;;;;;;;1.42;0.80;;;;;;;;;;4987816;28;20032;-87
2023/08/06 03:12:36;;;;;;;1.98;0.90;;;;;;;;;;4991276;28;20061;-85
2023/08/06 03:15:02;;;;;;;2.85;1.17;;;;;;;;;;4995723;28;20027;-85
2023/08/06 03:17:28;;;;;;;1.50;0.80;;;;;;;;;;5011892;28;20112;-85
2023/08/06 03:19:54;;;;;;;2.03;0.82;;;;;;;;;;4989700;28;20094;-85
2023/08/06 03:22:20;;;;;;;2.28;1.23;;;;;;;;;;4988648;28;20037;-85
2023/08/06 03:24:46;;;;;;;4.53;0.80;;;;;;;;;;4989451;28;20030;-84
2023/08/06 03:27:12;;;;;;;1.88;0.82;;;;;;;;;;5012967;28;20034;-85
2023/08/06 03:29:38;;;;;;;3.70;1.08;;;;;;;;;;5012575;28;20022;-85
2023/08/06 03:32:04;;;;;;;1.35;0.82;;;;;;;;;;5014558;28;20041;-85
2023/08/06 03:34:30;;;;;;;2.05;0.80;;;;;;;;;;5016576;28;20033;-86
2023/08/06 03:36:56;;;;;;;2.30;0.85;;;;;;;;;;5006567;28;20034;-86
2023/08/06 03:39:22;;;;;;;1.60;0.85;;;;;;;;;;5009020;28;20109;-85
2023/08/06 03:41:48;;;;;;;1.83;0.80;;;;;;;;;;5011362;28;20022;-86
2023/08/06 03:44:14;;;;;;;4.28;1.05;;;;;;;;;;5006450;28;20030;-85
2023/08/06 03:46:40;;;;;;;2.53;0.90;;;;;;;;;;4989693;28;20061;-85
2023/08/06 03:49:06;;;;;;;1.45;0.85;;;;;;;;;;4998515;28;20037;-85
2023/08/06 03:51:32;;;;;;;2.05;0.90;;;;;;;;;;4992004;28;20038;-84
2023/08/06 03:53:57;;;;;;;3.22;1.40;;;;;;;;;;5008616;28;20139;-85
2023/08/06 03:56:23;;;;;;;4.82;1.48;;;;;;;;;;5007602;28;20035;-85
2023/08/06 03:58:50;;;;;;;4.10;1.33;;;;;;;;;;4994144;28;20554;-85
2023/08/06 04:01:16;;;;;;;2.20;1.38;;;;;;;;;;4992905;28;20034;-85
2023/08/06 04:03:42;;;;;;;2.13;1.05;;;;;;;;;;4988373;28;20029;-85
2023/08/06 04:06:08;;;;;;;1.67;0.90;;;;;;;;;;5005045;28;20486;-83
2023/08/06 04:08:34;;;;;;;2.00;1.08;;;;;;;;;;4992034;28;20030;-86
2023/08/06 04:11:00;;;;;;;5.90;1.45;;;;;;;;;;5003966;28;20111;-85
2023/08/06 04:13:26;;;;;;;2.38;1.08;;;;;;;;;;4992432;28;20026;-83
2023/08/06 04:15:52;;;;;;;3.45;1.02;;;;;;;;;;5023514;28;20048;-84
2023/08/06 04:18:18;;;;;;;2.17;0.98;;;;;;;;;;4991272;28;20081;-84
2023/08/06 04:20:45;;;;;;;2.97;1.08;;;;;;;;;;5004881;28;20064;-84
2023/08/06 04:23:10;;;;;;;5.40;1.48;;;;;;;;;;5004436;28;20076;-84
2023/08/06 04:25:36;;;;;;;3.03;1.10;;;;;;;;;;5001541;28;20034;-84
2023/08/06 04:28:02;;;;;;;3.45;1.00;;;;;;;;;;4988073;28;20032;-84
2023/08/06 04:30:28;;;;;;;2.92;1.20;;;;;;;;;;5003644;28;20115;-83
2023/08/06 04:33:14;;;;;;;2.53;0.95;;;;;;;;;;5002153;28;20194;-84
2023/08/06 04:35:40;;;;;;;1.70;1.00;;;;;;;;;;4971452;28;20038;-85
2023/08/06 04:38:06;;;;;;;3.10;1.45;;;;;;;;;;4989641;28;20080;-83
2023/08/06 04:40:36;;;;;;;3.85;1.20;;;14.70;99.90;;;;;;4983179;28;20019;-86
2023/08/06 04:43:03;;;;;;;3.15;1.52;;;;;;;;;;4992887;28;20030;-88
2023/08/06 04:45:29;;;;;;;3.55;1.30;;;;;;;;;;4981555;28;20041;-86
2023/08/06 04:47:55;;;;;;;2.58;1.25;;;;;;;;;;4976784;28;20030;-87
2023/08/06 04:50:21;;;;;;;1.88;1.13;;;;;;;;;;4994147;28;20026;-87
2023/08/06 04:52:47;;;;;;;2.67;1.63;;;;;;;;;;4982000;28;20037;-89
2023/08/06 04:55:13;;;;;;;2.13;1.00;;;;;;;;;;4996497;28;20052;-87
2023/08/06 04:57:39;;;;;;;1.70;1.15;;;;;;;;;;4979190;28;20029;-85
2023/08/06 05:00:05;;;;;;;3.85;1.08;;;;;;;;;;4978117;28;20622;-86
2023/08/06 05:02:34;;;;;;;2.97;1.27;;;;;;;;;;4981326;28;20034;-85
2023/08/06 05:05:00;;;;;;;2.17;1.50;;;;;;;;;;4994631;28;20026;-85
2023/08/06 05:07:26;;;;;;;3.28;1.48;;;;;;;;;;4997962;28;20026;-85
2023/08/06 05:09:53;;;;;;;2.63;1.30;;;;;;;;;;4996832;28;20030;-85
2023/08/06 05:12:19;;;;;;;2.47;1.38;;;;;;;;;;4987627;28;20041;-84
2023/08/06 05:14:45;;;;;;;2.50;1.10;;;;;;;;;;4977899;28;20038;-86
2023/08/06 05:17:11;;;;;;;1.83;0.93;;;;;;;;;;4984638;28;20053;-84
2023/08/06 05:19:37;;;;;;;2.60;0.90;;;;;;;;;;4987480;28;20492;-87
2023/08/06 05:22:03;;;;;;;1.95;0.88;;;;;;;;;;4977963;28;20037;-85
2023/08/06 05:24:29;;;;;;;3.70;0.77;;;;;;;;;;4992791;28;20030;-87
2023/08/06 05:26:55;;;;;;;2.50;0.95;;;;;;;;;;4997456;28;20036;-86
2023/08/06 05:29:21;;;;;;;1.30;0.55;;;;;;;;;;4997110;28;20034;-85
2023/08/06 05:31:47;;;;;;;2.55;0.98;;;;;;;;;;4985223;28;20030;-86
2023/08/06 05:34:13;;;;;;;1.20;0.50;;;;;;;;;;4990353;28;20037;-85
2023/08/06 05:36:39;;;;;;;2.47;0.90;;;;;;;;;;5008892;28;20117;-83
2023/08/06 05:39:05;;;;;;;1.98;0.73;;;;;;;;;;4997535;28;20027;-84
2023/08/06 05:41:31;;;;;;;1.33;0.57;;;;;;;;;;4999807;28;20076;-86
2023/08/06 05:43:57;;;;;;;4.40;1.10;;;;;;;;;;5016110;28;20069;-87
2023/08/06 05:46:23;;;;;;;2.20;1.35;;;;;;;;;;5003042;28;20499;-85
2023/08/06 05:48:50;;;;;;;2.38;0.93;;;;;;;;;;4980239;28;20040;-84
2023/08/06 05:51:16;;;;;;;2.15;1.00;;;;;;;;;;4986078;28;20118;-84
2023/08/06 05:53:42;;;;;;;2.95;1.05;;;;;;;;;;4985761;28;20017;-86
2023/08/06 05:56:08;;;;;;;1.58;0.50;;;;;;;;;;4978595;28;20037;-84
2023/08/06 05:58:34;;;;;;;2.53;0.40;;;;;;;;;;4982724;28;20029;-86
2023/08/06 06:01:00;;;;;;;1.90;0.57;;;;;;;;;;4996682;28;20073;-84
2023/08/06 06:03:26;;;;;;;2.30;0.52;;;;;;;;;;4994976;28;20147;-84
2023/08/06 06:05:53;;;;;;;1.25;0.38;;;;;;;;;;4980579;28;20557;-85
2023/08/06 06:08:19;;;;;;;0.90;0.30;;;;;;;;;;4987676;28;20030;-85
2023/08/06 06:10:44;;;;;;;3.83;0.45;;;;;;;;;;4979385;28;20033;-86
2023/08/06 06:13:10;;;;;;;3.92;0.55;;;;;;;;;;4997089;28;20038;-88
2023/08/06 06:15:37;;;;;;;3.85;0.47;;;;;;;;;;4981114;28;20032;-87
2023/08/06 06:18:03;;;;;;;0.90;0.40;;;;;;;;;;4986780;28;20026;-87
2023/08/06 06:20:29;;;;;;;0.70;0.20;;;;;;;;;;4982296;28;20518;-87
2023/08/06 06:22:55;;;;;;;0.32;0.20;;;;;;;;;;4999053;28;20033;-85
2023/08/06 06:25:21;;;;;;;1.00;0.30;;;;;;;;;;4986645;28;20061;-86
2023/08/06 06:27:47;;;;;;;1.05;0.55;;;;;;;;;;4978470;28;20060;-89
2023/08/06 06:30:14;;;;;;;2.92;0.45;;;;;;;;;;4985691;28;20037;-86
2023/08/06 06:32:40;;;;;;;0.70;0.20;;;;;;;;;;4995052;28;20034;-85
2023/08/06 06:35:06;;;;;;;1.73;0.63;;;;;;;;;;5012554;28;20022;-84
2023/08/06 06:37:32;;;;;;;0.60;0.28;;;;;;;;;;5011788;28;20026;-86
2023/08/06 06:39:58;;;;;;;0.10;0.10;;;;;;;;;;5004227;28;20033;-85
2023/08/06 06:42:24;;;;;;;0.43;0.17;;;;;;;;;;5007129;28;20071;-85
2023/08/06 06:44:50;;;;;;;2.40;0.40;;;;;;;;;;5009058;28;20037;-85
2023/08/06 06:47:16;;;;;;;4.07;1.00;;;;;;;;;;5015294;28;20037;-84
2023/08/06 06:49:42;;;;;;;2.90;0.95;;;;;;;;;;5005262;28;20030;-84
2023/08/06 06:52:08;;;;;;;0.43;0.20;;;;;;;;;;5005475;28;20038;-83
2023/08/06 06:54:34;;;;;;;0.47;0.30;;;;;;;;;;4991283;28;20029;-83
2023/08/06 06:57:00;;;;;;;1.95;0.20;;;;;;;;;;5004832;28;20053;-85
2023/08/06 06:59:26;;;;;;;0.38;0.10;;;;;;;;;;4997413;28;20420;-85
2023/08/06 07:01:52;;;;;;;0.13;0.10;;;;;;;;;;5001027;28;20026;-86
2023/08/06 07:04:18;;;;;;;1.75;0.30;;;;;;;;;;5005922;28;20026;-84
2023/08/06 07:06:44;;;;;;;0.45;0.20;;;;;;;;;;5011106;28;20034;-84
2023/08/06 07:09:10;;;;;;;0.52;0.15;;;;;;;;;;5008362;28;20036;-85
2023/08/06 07:11:36;;;;;;;1.58;0.20;;;;;;;;;;4997197;28;20034;-85
2023/08/06 07:14:02;;;;;;;1.02;0.30;;;;;;;;;;5010682;28;20110;-85
2023/08/06 07:16:29;;;;;;;2.28;0.20;;;;;;;;;;4986736;28;20026;-84
2023/08/06 07:18:55;;;;;;;0.08;0.08;;;;;;;;;;4996738;28;20037;-85
2023/08/06 07:21:21;;;;;;;1.35;0.20;;;;;;;;;;5004257;28;20029;-85
2023/08/06 07:23:49;;;;;;;0.40;0.20;;;;;;;;;;4988175;28;20394;-87
2023/08/06 07:26:15;;;;;;;0.17;0.10;;;;;;;;;;5010705;28;20026;-86
2023/08/06 07:28:41;;;;;;;1.27;0.20;;;;;;;;;;4990746;28;20397;-86
2023/08/06 07:31:07;;;;;;;0.45;0.10;;;;;;;;;;5008636;28;20032;-87
2023/08/06 07:33:32;;;;;;;4.18;0.30;;;;;;;;;;5002344;28;20669;-85
2023/08/06 07:35:58;;;;;;;0.60;0.10;;;;;;;;;;5004296;28;20432;-87
2023/08/06 07:38:26;;;;;;;1.17;0.17;;;;;;;;;;4992393;28;22642;-83
2023/08/06 07:40:52;;;;;;;1.10;0.20;;;;;;;;;;5010241;28;20040;-85
2023/08/06 07:43:18;;;;;;;0.22;0.10;;;;;;;;;;5007090;28;20124;-88
2023/08/06 07:45:44;;;;;;;1.65;0.10;;;;;;;;;;5006034;28;20088;-85
2023/08/06 07:48:09;;;;;;;2.47;0.30;;;;;;;;;;4984593;28;20034;-85
2023/08/06 07:50:35;;;;;;;0.80;0.10;;;;;;;;;;4986379;28;20029;-85
2023/08/06 07:53:01;;;;;;;0.20;0.10;;;;;;;;;;5007702;28;20061;-86
2023/08/06 07:55:27;;;;;;;0.30;0.15;;;;;;;;;;5011691;28;20057;-85
2023/08/06 07:57:54;;;;;;;0.13;0.03;;;16.30;99.90;;;;;;4984063;28;20029;-85
2023/08/06 08:00:20;;;;;;;0.10;0.10;;;;;;;;;;4998926;28;20029;-85
2023/08/06 08:02:46;;;;;;;0.80;0.25;;;;;;;;;;4999145;28;20491;-84
2023/08/06 08:05:12;;;;;;;0.08;0.08;;;;;;;;;;4977492;28;20633;-84
2023/08/06 08:07:38;;;;;;;0.32;0.10;;;;;;;;;;5000746;28;20034;-84
2023/08/06 08:10:05;;;;;;;1.80;0.20;;;;;;;;;;5006263;28;20641;-84
2023/08/06 08:12:31;;;;;;;0.25;0.10;;;;;;;;;;5001469;28;20029;-84
2023/08/06 08:14:57;;;;;;;0.00;0.00;;;;;;;;;;4984209;28;20435;-84
2023/08/06 08:17:23;;;;;;;0.45;0.20;;;;;;;;;;5002811;28;20141;-85
2023/08/06 08:19:49;;;;;;;0.28;0.10;;;;;;;;;;5000213;28;20036;-82
2023/08/06 08:22:15;;;;;;;0.00;0.00;;;;;;;;;;5002053;28;20033;-81
2023/08/06 08:24:41;;;;;;;1.10;0.32;;;;;;;;;;4985122;28;20198;-84
2023/08/06 08:27:06;;;;;;;0.05;0.05;;;;;;;;;;5002909;28;20494;-85
2023/08/06 08:29:32;;;;;;;1.25;0.17;;;;;;;;;;5000503;28;20034;-83
2023/08/06 08:31:58;;;;;;;0.10;0.10;;;;;;;;;;5000963;28;20124;-85
2023/08/06 08:34:24;;;;;;;1.15;0.47;;;;;;;;;;4980079;28;20038;-83
2023/08/06 08:36:50;;;;;;;0.73;0.20;;;;;;;;;;4996668;28;20038;-84
2023/08/06 08:39:17;;;;;;;0.55;0.30;;;;;;;;;;5003281;28;20029;-84
2023/08/06 08:41:43;;;;;;;0.77;0.43;;;;;;;;;;5005499;28;20390;-83
2023/08/06 08:44:12;;;;;;;2.13;0.28;;;16.60;99.90;;;;;;5003926;28;20030;-83
2023/08/06 08:46:41;;;;;;;0.38;0.20;;;16.20;99.90;;;;;;5008985;28;20026;-84
2023/08/06 08:49:07;;;;;;;0.20;0.10;;;;;;;;;;4991760;28;20077;-85
2023/08/06 08:51:36;;;;;;;0.20;0.20;;;17.30;99.90;;;;;;5013892;28;20041;-85
2023/08/06 08:54:07;;;;;;;0.40;0.20;;;17.30;99.90;;;;;;5016104;28;20026;-84
2023/08/06 08:56:33;;;;;;;0.05;0.00;;;;;;;;;;4979028;28;20038;-83
2023/08/06 08:58:59;;;;;;;0.30;0.10;;;;;;;;;;4983285;28;20030;-83
2023/08/06 09:01:27;;;;;;;0.30;0.13;;;17.80;99.90;;;;;;4979391;28;20120;-85
2023/08/06 09:03:53;;;;;;;0.52;0.10;;;17.60;99.90;;;;;;5003195;28;20423;-84
2023/08/06 09:06:20;;;;;;;0.00;0.00;;;17.60;99.90;;;;;;4997491;28;20033;-84
2023/08/06 09:09:04;;;;;;;0.10;0.00;;;17.40;99.90;;;;;;4983151;28;20030;-83
2023/08/06 09:11:38;;;;;;;0.10;0.10;;;17.10;99.90;;;;;;5002537;28;20029;-84
2023/08/06 09:14:04;;;;;;;0.00;0.00;;;;;;;;;;4984648;28;20030;-83
2023/08/06 09:16:30;;;;;;;0.28;0.10;;;;;;;;;;4985475;28;20022;-85
2023/08/06 09:19:10;;;;;;;0.05;0.05;;;16.80;99.90;;;;;;4984673;28;20401;-84
2023/08/06 09:21:39;;;;;;;0.63;0.10;;;16.80;99.90;;;;;;4984841;28;20185;-82
2023/08/06 09:24:10;;;;;;;0.13;0.00;;;17.00;99.90;;;;;;4987646;28;20036;-88
2023/08/06 09:26:38;;;;;;;0.00;0.00;;;17.00;99.90;;;;;;4982253;28;20026;-83
2023/08/06 09:29:06;;;;;;;0.00;0.00;;;17.10;99.90;;;;;;4984614;28;20033;-84
2023/08/06 09:31:50;;;;;;;0.40;0.08;;;17.00;99.90;;;;;;4987636;28;20033;-83
2023/08/06 09:34:17;;;;;;;0.22;0.05;;;17.00;99.90;;;;;;5000719;28;20055;-84
2023/08/06 09:36:47;;;;;;;0.20;0.10;;;17.30;99.90;;;;;;5002050;28;20033;-85
2023/08/06 09:39:17;;;;;;;0.10;0.10;;;17.30;99.90;;;;;;4998170;28;20848;-86
2023/08/06 09:41:43;;;;;;;0.47;0.10;;;;;;;;;;4993936;28;20038;-86
2023/08/06 09:44:21;;;;;;;0.30;0.10;;;17.30;99.90;;;;;;5000706;28;20406;-85
2023/08/06 09:46:53;;;;;;;0.10;0.00;;;17.30;99.90;;;;;;4982839;28;20037;-85
2023/08/06 09:49:21;;;;;;;0.25;0.10;;;17.30;99.90;;;;;;5012425;28;20034;-84
2023/08/06 09:51:50;;;;;;;2.83;0.20;;;;;;;;;;5008756;28;20030;-85
2023/08/06 09:54:18;;;;;;;0.10;0.10;;;17.30;99.90;;;;;;4985772;28;20065;-82
2023/08/06 09:56:44;;;;;;;0.25;0.10;;;;;;;;;;4984702;28;20030;-81
2023/08/06 09:59:13;;;;;;;0.17;0.10;;;;;;;;;;4999335;28;20112;-81
2023/08/06 10:01:38;;;;;;;0.10;0.10;;;;;;;;;;5003004;28;20091;-81
2023/08/06 10:04:08;;;;;;;0.10;0.10;;;18.50;99.90;;;;;;4995365;28;20101;-81
2023/08/06 10:06:37;;;;;;;0.20;0.20;;;18.60;99.90;;;;;;5001009;28;20517;-81
2023/08/06 10:09:03;;;;;;;0.10;0.00;;;;;;;;;;4992853;28;20042;-80
2023/08/06 10:11:30;;;;;;;2.47;0.10;;;;;;;;;;5008978;28;20025;-81
2023/08/06 10:14:01;;;;;;;0.13;0.10;;;18.30;99.90;;;;;;4989298;28;20057;-82
2023/08/06 10:16:28;;;;;;;0.32;0.10;;;18.90;99.90;;;;;;4990038;28;20022;-81
2023/08/06 10:18:54;;;;;;;0.00;0.00;;;;;;;;;;5004059;28;20482;-82
2023/08/06 10:21:21;;;;;;;0.00;0.00;;;;;;;;;;4995533;28;20046;-82
2023/08/06 10:23:54;;;;;;;0.00;0.00;;;18.40;99.90;;;;;;5015328;28;20077;-80
2023/08/06 10:26:20;;;;;;;0.05;0.00;;;;;;;;;;5015721;28;20034;-81
2023/08/06 10:28:46;;;;;;;0.75;0.10;;;;;;;;;;5018118;28;20034;-80
2023/08/06 10:31:11;;;;;;;1.27;0.30;;;18.50;99.90;;;;;;5019955;28;20040;-81
2023/08/06 10:33:44;;;;;;;1.48;0.60;;;17.80;99.90;;;;;;5015684;28;20034;-80
2023/08/06 10:36:10;;;;;;;;;;;18.00;99.90;;;;;;4992621;28;20034;-81
2023/08/06 10:38:47;;;;;;;0.00;0.00;;;17.60;99.90;;;;;;4998826;28;19976;-81
2023/08/06 10:41:32;;;;;;;0.15;0.08;;;17.70;99.90;;;;;;5017091;28;20079;-80
2023/08/06 10:44:11;;;;;;;2.05;0.10;;;17.80;99.90;;;;;;5018083;28;20033;-79
2023/08/06 10:46:37;;;;;;;3.80;0.10;;;18.10;99.90;;;;;;5015003;28;20034;-81
2023/08/06 10:49:04;;;;;;;0.00;0.00;;;18.80;99.90;;;;;;5012752;28;20540;-81
2023/08/06 10:51:30;;;;;;;0.45;0.17;;;;;;;;;;5006996;28;20034;-80
2023/08/06 10:53:57;;;;;;;0.10;0.03;;;;;;;;;;5003920;28;20034;-81
2023/08/06 10:56:26;;;;;;;0.00;0.00;;;19.20;99.90;;;;;;5008513;28;20030;-80
2023/08/06 10:58:54;;;;;;;0.10;0.03;;;19.20;99.90;;;;;;5008911;28;20029;-80
2023/08/06 11:01:22;;;;;;;0.10;0.00;;;20.10;99.90;;;;;;5010484;28;20030;-80
2023/08/06 11:03:50;;;;;;;0.45;0.00;;;;;;;;;;4996817;28;20387;-80
2023/08/06 11:06:22;;;;;;;3.33;0.45;;;;;;;;;;5007295;28;20022;-80
2023/08/06 11:08:52;;;;;;;1.20;0.08;;;19.60;99.90;;;;;;5008014;28;20034;-79
2023/08/06 11:11:19;;;;;;;0.65;0.00;;;;;;;;;;4995279;28;20034;-80
2023/08/06 11:13:46;;;;;;;0.10;0.00;;;19.50;99.90;;;;;;4993633;28;20079;-80
2023/08/06 11:16:13;;;;;;;0.30;0.20;;;20.60;99.90;;;;;;5009702;28;20425;-81
2023/08/06 11:22:02;;;;;;;0.10;0.00;;;;;;;;;;4982721;28;20706;-79
2023/08/06 11:24:28;;;;;;;0.22;0.00;;;;;;;;;;4996863;28;20026;-79
2023/08/06 11:26:54;;;;;;;0.00;0.00;;;;;;;;;;4999057;28;20638;-82
2023/08/06 11:29:21;;;;;;;0.10;0.08;;;;;;;;;;5006322;28;20030;-80
2023/08/06 11:31:47;;;;;;;0.00;0.00;;;;;;;;;;4993383;28;20474;-82
2023/08/06 11:34:13;;;;;;;0.50;0.10;;;;;;;;;;5006386;28;20034;-82
2023/08/06 11:36:41;;;;;;;0.90;0.10;;;18.10;99.90;;;;;;4991030;28;20037;-82
2023/08/06 11:39:07;;;;;;;0.25;0.10;;;;;;;;;;5017010;28;20026;-82
2023/08/06 11:41:33;;;;;;;1.67;0.73;;;;;;;;;;5017969;28;20036;-82
2023/08/06 11:43:59;;;;;;;0.20;0.20;;;18.10;99.90;;;;;;5002533;28;20040;-79
2023/08/06 11:46:26;;;;;;;0.22;0.08;;;;;;;;;;5009026;28;20029;-79
2023/08/06 11:48:56;;;;;;;0.90;0.10;;;15.90;99.90;;;;;;5004133;28;20094;-78
2023/08/06 11:51:28;;;;;;;0.10;0.00;;;19.00;99.90;;;;;;4992840;28;20040;-81
2023/08/06 11:53:57;;;;;;;0.40;0.20;;;19.20;99.90;;;;;;5022012;28;20088;-81
2023/08/06 11:56:25;;;;;;;0.00;0.00;;;18.40;99.90;;;;;;4996622;28;20026;-79
2023/08/06 11:58:51;;;;;;;0.25;0.00;;;;;;;;;;4989039;28;20030;-81
2023/08/06 12:01:17;;;;;;;0.20;0.10;;;;;;;;;;4997894;28;20026;-80
2023/08/06 12:03:42;;;;;;;0.10;0.10;;;17.80;99.90;;;;;;5007352;28;20034;-79
2023/08/06 12:06:10;;;;;;;4.38;0.63;;;;;;;;;;5016574;28;20077;-79
2023/08/06 12:08:38;;;;;;;0.25;0.10;;;;;;;;;;5017204;28;20030;-81
2023/08/06 12:11:04;;;;;;;0.20;0.10;;;;;;;;;;5016311;28;20064;-82
2023/08/06 12:13:30;;;;;;;3.83;0.90;;;;;;;;;;4999557;28;20080;-81
2023/08/06 12:15:57;;;;;;;3.30;0.75;;;;;;;;;;5005449;28;20040;-80
2023/08/06 12:18:23;;;;;;;3.25;1.10;;;;;;;;;;5015854;28;20025;-82
2023/08/06 12:20:49;;;;;;;0.63;0.20;;;;;;;;;;5015758;28;20021;-80
2023/08/06 12:23:16;;;;;;;0.68;0.10;;;;;;;;;;5014269;28;20420;-82
2023/08/06 12:25:42;;;;;;;0.10;0.10;;;;;;;;;;5019549;28;20033;-83
2023/08/06 12:28:09;;;;;;;0.90;0.20;;;;;;;;;;5014622;28;20040;-83
2023/08/06 12:30:35;;;;;;;0.30;0.20;;;;;;;;;;5001226;28;20029;-82
2023/08/06 12:33:01;;;;;;;0.85;0.50;;;;;;;;;;4996652;28;20490;-83
2023/08/06 12:35:27;;;;;;;1.52;0.10;;;;;;;;;;5016691;28;20030;-81
2023/08/06 12:37:54;;;;;;;0.43;0.15;;;;;;;;;;4990179;28;20040;-79
2023/08/06 12:40:21;;;;;;;0.32;0.10;;;;;;;;;;5001451;28;20030;-79
2023/08/06 12:42:48;;;;;;;0.40;0.30;;;;;;;;;;5002703;28;20029;-83
2023/08/06 12:45:14;;;;;;;0.35;0.10;;;;;;;;;;5011932;28;20026;-82
2023/08/06 12:47:41;;;;;;;0.30;0.10;;;;;;;;;;5010716;28;20032;-83
2023/08/06 12:50:07;;;;;;;0.68;0.32;;;15.00;99.90;;;;;;5003166;28;20125;-83
2023/08/06 12:52:33;;;;;;;0.22;0.10;;;;;;;;;;4993484;28;20080;-82
2023/08/06 12:54:59;;;;;;;2.17;0.35;;;;;;;;;;5009489;28;20510;-82
2023/08/06 12:57:26;;;;;;;0.28;0.10;;;;;;;;;;5009102;28;20030;-84
2023/08/06 12:59:53;;;;;;;0.10;0.10;;;15.20;99.90;;;;;;4994292;28;20052;-83
2023/08/06 13:02:19;;;;;;;0.40;0.20;;;;;;;;;;4997026;28;20514;-81
2023/08/06 13:04:47;;;;;;;0.30;0.20;;;15.30;99.90;;;;;;5008343;28;20033;-82
2023/08/06 13:07:13;;;;;;;0.73;0.30;;;;;;;;;;5003798;28;20103;-82
2023/08/06 13:09:39;;;;;;;0.68;0.32;;;;;;;;;;4996366;28;20120;-81
2023/08/06 13:12:06;;;;;;;1.98;0.32;;;;;;;;;;4993005;28;20029;-82
2023/08/06 13:14:32;;;;;;;2.72;0.28;;;;;;;;;;5008924;28;20092;-82
2023/08/06 13:16:59;;;;;;;2.03;0.45;;;;;;;;;;4989073;28;20026;-83
2023/08/06 13:19:25;;;;;;;3.85;1.33;;;;;;;;;;5009780;28;20026;-81
2023/08/06 13:21:51;;;;;;;1.52;0.70;;;;;;;;;;5005229;28;20032;-82
2023/08/06 13:24:17;;;;;;;1.52;0.60;;;;;;;;;;5015027;28;20030;-80
2023/08/06 13:26:43;;;;;;;2.13;0.80;;;15.00;99.90;;;;;;5010733;28;20048;-81
2023/08/06 13:29:09;;;;;;;3.88;1.95;;;;;;;;;;4998143;28;20030;-82
2023/08/06 13:31:36;;;;;;;1.45;0.82;;;15.50;99.90;;;;;;4995678;28;20030;-81
2023/08/06 13:34:02;;;;;;;5.22;1.55;;;;;;;;;;5004395;28;20054;-81
2023/08/06 13:36:28;;;;;;;2.03;1.00;;;;;;;;;;4983718;28;20572;-82
2023/08/06 13:38:55;;;;;;;1.15;1.00;;;;;;;;;;5000179;28;20031;-81
2023/08/06 13:41:21;;;;;;;2.53;1.20;;;;;;;;;;4994683;28;20049;-82
2023/08/06 13:43:47;;;;;;;3.47;1.48;;;;;;;;;;5015349;28;20460;-82
2023/08/06 13:46:16;;;;;;;1.77;0.80;;;;;;;;;;5016262;28;20088;-81
2023/08/06 13:48:42;;;;;;;1.98;0.90;;;;;;;;;;5009228;28;20038;-82
2023/08/06 13:51:08;;;;;;;1.50;0.70;;;14.80;99.90;;;;;;5009800;28;20029;-82
2023/08/06 13:53:34;;;;;;;1.98;1.00;;;15.70;99.90;;;;;;5008009;28;20038;-81
2023/08/06 13:56:00;;;;;;;1.60;0.60;;;;;;;;;;5003268;28;20064;-82
2023/08/06 13:58:26;;;;;;;2.65;1.13;;;;;;;;;;5010010;28;20470;-82
2023/08/06 14:00:52;;;;;;;1.30;0.65;;;;;;;;;;5007929;28;20493;-80
2023/08/06 14:03:19;;;;;;;2.45;1.23;;;;;;;;;;5009564;28;20109;-81
2023/08/06 14:05:45;;;;;;;3.38;1.48;;;;;;;;;;5011636;28;20036;-81
2023/08/06 14:08:10;;;;;;;3.13;1.30;;;15.20;99.90;;;;;;4994338;28;20077;-80
2023/08/06 14:10:36;;;;;;;1.45;0.77;;;;;;;;;;4993133;28;20021;-80
2023/08/06 14:13:02;;;;;;;1.95;0.70;;;;;;;;;;5010609;28;20100;-81
2023/08/06 14:15:28;;;;;;;1.60;0.50;;;;;;;;;;4986129;28;20026;-82
2023/08/06 14:17:54;;;;;;;4.03;1.00;;;;;;;;;;5004993;28;20068;-81